Time;durP1;ratioP1;P1;durP2;ratioP2;P2;SDS_P1;SDS_P2;PMS_P1;PMS_P2;Temp;Humidity;BMP_temperature;BMP_pressure;BME280_temperature;BME280_humidity;BME280_pressure;Samples;Min_cycle;Max_cycle;Signal;HPM_P1;HPM_P2
2024/01/02 00:02:10;;;;;;;11.70;3.90;;;;;;;2.89;95.82;95969.58;109237;1265;51208;-82
2024/01/02 00:04:42;;;;;;;10.60;4.70;;;;;;;2.86;95.79;95965.46;109161;1272;22538;-82
2024/01/02 00:07:15;;;;;;;7.60;3.90;;;;;;;2.89;95.77;95971.62;109251;1267;22775;-81
2024/01/02 00:09:49;;;;;;;7.10;3.50;;;;;;;2.89;95.70;95970.89;109308;1266;22620;-82
2024/01/02 00:12:25;;;;;;;11.30;4.80;;;;;;;2.89;95.69;95974.14;109099;1273;22554;-82
2024/01/02 00:14:57;;;;;;;8.40;4.20;;;;;;;2.91;95.70;95975.41;109099;1273;24244;-82
2024/01/02 00:17:28;;;;;;;8.60;3.80;;;;;;;2.94;95.58;95975.90;109103;1272;24226;-82
2024/01/02 00:19:59;;;;;;;7.10;2.80;;;;;;;2.92;95.54;95976.98;109087;1270;36822;-82
2024/01/02 00:22:30;;;;;;;12.60;3.90;;;;;;;2.92;95.74;95975.84;109265;1272;23182;-82
2024/01/02 00:25:02;;;;;;;8.20;3.50;;;;;;;2.90;95.63;95973.31;109274;1266;22591;-81
2024/01/02 00:27:36;;;;;;;6.70;3.00;;;;;;;2.89;95.53;95975.02;109266;1266;23282;-82
2024/01/02 00:30:12;;;;;;;9.30;3.90;;;;;;;2.87;95.55;95975.63;109159;1271;91253;-82
2024/01/02 00:32:43;;;;;;;10.00;4.10;;;;;;;2.87;95.57;95977.00;109212;1266;22831;-82
2024/01/02 00:35:17;;;;;;;8.80;3.90;;;;;;;2.89;95.55;95971.36;109232;1266;22569;-81
2024/01/02 00:37:48;;;;;;;11.00;5.00;;;;;;;2.89;95.50;95968.68;109219;1270;22519;-82
2024/01/02 00:40:19;;;;;;;8.10;3.60;;;;;;;2.87;95.44;95967.20;109209;1267;59466;-82
2024/01/02 00:42:59;;;;;;;9.80;3.90;;;;;;;2.87;95.39;95970.40;109203;1272;23904;-81
2024/01/02 00:45:30;;;;;;;7.20;3.10;;;;;;;2.87;95.40;95969.20;109281;1248;22619;-82
2024/01/02 00:48:01;;;;;;;6.60;2.80;;;;;;;2.84;95.39;95969.52;109261;1272;23699;-81
2024/01/02 00:50:38;;;;;;;7.20;3.20;;;;;;;2.79;95.31;95966.98;109194;1250;56141;-82
2024/01/02 00:53:14;;;;;;;6.10;2.50;;;;;;;2.75;95.21;95970.26;109288;1265;23807;-82
2024/01/02 00:55:46;;;;;;;5.50;3.00;;;;;;;2.72;95.43;95972.95;109205;1271;22557;-82
2024/01/02 00:58:17;;;;;;;9.30;4.30;;;;;;;2.73;95.54;95969.24;109283;1272;22472;-81
2024/01/02 01:00:48;;;;;;;10.10;4.00;;;;;;;2.71;95.42;95963.04;109263;1271;56586;-81
2024/01/02 01:03:19;;;;;;;9.70;4.20;;;;;;;2.72;95.53;95970.17;109249;1265;22567;-81
2024/01/02 01:05:50;;;;;;;9.70;4.30;;;;;;;2.74;95.46;95965.89;109276;1266;24353;-81
2024/01/02 01:08:24;;;;;;;7.40;3.80;;;;;;;2.76;95.56;95969.73;109264;1266;22984;-81
2024/01/02 01:10:57;;;;;;;7.70;3.10;;;;;;;2.76;95.52;95967.48;109285;1266;54953;-81
2024/01/02 01:13:31;;;;;;;9.00;3.40;;;;;;;2.77;95.60;95966.08;109223;1266;24209;-82
2024/01/02 01:16:08;;;;;;;8.50;3.60;;;;;;;2.77;95.51;95969.80;109266;1269;23861;-82
2024/01/02 01:18:39;;;;;;;9.00;3.90;;;;;;;2.75;95.43;95971.20;109274;1272;22569;-81
2024/01/02 01:21:13;;;;;;;7.30;3.60;;;;;;;2.73;95.47;95962.48;109239;1272;42285;-81
2024/01/02 01:23:45;;;;;;;4.10;2.70;;;;;;;2.71;95.48;95967.70;109274;1265;22501;-82
2024/01/02 01:26:19;;;;;;;7.00;3.80;;;;;;;2.68;95.54;95967.67;109323;1271;22946;-81
2024/01/02 01:28:51;;;;;;;7.50;3.70;;;;;;;2.66;95.58;95970.04;109210;1269;22553;-80
2024/01/02 01:31:24;;;;;;;11.90;4.50;;;;;;;2.65;95.55;95972.42;109180;1266;47855;-80
2024/01/02 01:33:55;;;;;;;9.70;4.00;;;;;;;2.65;95.58;95973.21;109217;1257;22486;-80
2024/01/02 01:36:29;;;;;;;8.30;4.00;;;;;;;2.64;95.51;95969.13;109279;1271;23160;-81
2024/01/02 01:39:00;;;;;;;8.50;3.70;;;;;;;2.65;95.58;95970.80;109204;1272;22524;-80
2024/01/02 01:41:32;;;;;;;8.60;3.70;;;;;;;2.64;95.58;95970.38;109264;1270;67113;-80
2024/01/02 01:44:05;;;;;;;8.70;4.10;;;;;;;2.63;95.54;95970.99;109223;1266;22532;-81
2024/01/02 01:46:41;;;;;;;9.50;4.00;;;;;;;2.62;95.46;95970.20;109203;1270;22550;-81
2024/01/02 01:49:19;;;;;;;9.50;3.80;;;;;;;2.60;95.53;95975.26;109195;1271;22525;-81
2024/01/02 01:51:52;;;;;;;8.10;3.80;;;;;;;2.58;95.49;95973.56;109196;1264;44411;-81
2024/01/02 01:54:25;;;;;;;7.10;3.70;;;;;;;2.59;95.66;95973.15;109217;1269;22598;-81
2024/01/02 01:57:03;;;;;;;6.70;3.10;;;;;;;2.61;95.63;95973.64;109271;1272;22535;-81
2024/01/02 01:59:36;;;;;;;6.10;3.10;;;;;;;2.64;95.78;95974.40;109217;1272;23254;-82
2024/01/02 02:02:11;;;;;;;6.10;3.20;;;;;;;2.68;95.83;95973.79;109185;1266;47336;-81
2024/01/02 02:04:50;;;;;;;8.40;3.40;;;;;;;2.70;95.79;95973.28;109188;1272;22595;-81
2024/01/02 02:07:21;;;;;;;7.50;3.10;;;;;;;2.73;95.82;95973.20;109228;1272;23857;-82
2024/01/02 02:09:53;;;;;;;7.60;3.70;;;;;;;2.76;95.86;95974.81;109201;1259;62706;-81
2024/01/02 02:12:24;;;;;;;6.90;3.10;;;;;;;2.77;95.81;95975.40;109222;1272;22523;-81
2024/01/02 02:14:56;;;;;;;7.40;3.40;;;;;;;2.79;95.75;95974.52;109190;1266;22543;-81
2024/01/02 02:17:37;;;;;;;7.30;3.80;;;;;;;2.80;95.69;95972.56;109177;1272;22629;-81
2024/01/02 02:20:12;;;;;;;7.80;3.60;;;;;;;2.80;95.76;95976.64;109148;1272;59334;-81
2024/01/02 02:22:50;;;;;;;8.30;3.40;;;;;;;2.81;95.76;95976.35;109223;1272;22515;-81
2024/01/02 02:25:22;;;;;;;6.60;2.60;;;;;;;2.83;95.76;95976.95;109152;1266;23997;-82
2024/01/02 02:27:55;;;;;;;8.00;3.00;;;;;;;2.87;95.80;95980.77;109201;1272;25959;-82
2024/01/02 02:30:29;;;;;;;8.90;3.30;;;;;;;2.91;95.85;95979.90;109094;1272;65171;-82
2024/01/02 02:33:00;;;;;;;6.20;2.90;;;;;;;2.91;95.73;95981.69;109208;1266;22534;-81
2024/01/02 02:35:32;;;;;;;3.40;2.30;;;;;;;2.92;95.85;95980.19;109174;1272;22608;-82
2024/01/02 02:38:11;;;;;;;7.00;2.50;;;;;;;2.90;95.88;95979.27;109201;1272;24209;-82
2024/01/02 02:40:43;;;;;;;5.90;2.60;;;;;;;2.89;96.01;95983.77;109159;1269;96064;-82
2024/01/02 02:43:14;;;;;;;6.10;2.60;;;;;;;2.93;96.19;95985.70;109244;1265;23702;-82
2024/01/02 02:45:46;;;;;;;4.90;2.30;;;;;;;2.93;96.02;95987.84;109222;1266;22528;-83
2024/01/02 02:48:27;;;;;;;5.90;2.20;;;;;;;2.91;96.13;95986.14;109211;1269;22592;-82
2024/01/02 02:50:58;;;;;;;6.60;2.60;;;;;;;2.91;96.28;95981.90;109140;1271;39652;-82
2024/01/02 02:53:29;;;;;;;4.70;2.70;;;;;;;2.91;96.29;95983.10;109217;1266;22572;-82
2024/01/02 02:56:00;;;;;;;5.40;2.30;;;;;;;2.91;96.26;95980.59;109142;1272;22521;-83
2024/01/02 02:58:39;;;;;;;4.90;2.70;;;;;;;2.90;96.30;95982.41;109162;1272;22691;-82
2024/01/02 03:01:23;;;;;;;6.70;2.90;;;;;;;2.89;96.40;95980.32;109105;1271;168046;-83
2024/01/02 03:03:54;;;;;;;8.10;3.10;;;;;;;2.88;96.38;95978.30;109195;1265;22549;-82
2024/01/02 03:06:34;;;;;;;5.20;2.40;;;;;;;2.86;96.51;95975.05;109219;1272;22525;-82
2024/01/02 03:09:07;;;;;;;6.10;2.40;;;;;;;2.86;96.46;95976.10;109163;1269;25944;-82
2024/01/02 03:11:48;;;;;;;6.50;3.90;;;;;;;2.84;96.58;95972.89;109173;1266;56419;-82
2024/01/02 03:14:30;;;;;;;6.60;2.20;;;;;;;2.81;96.47;95971.21;109160;1272;22529;-82
2024/01/02 03:17:07;;;;;;;5.40;2.30;;;;;;;2.80;96.61;95968.36;109149;1270;22520;-82
2024/01/02 03:19:44;;;;;;;4.90;1.80;;;;;;;2.81;96.65;95963.83;109253;1266;22513;-82
2024/01/02 03:22:18;;;;;;;4.70;2.40;;;;;;;2.82;96.70;95967.84;109164;1268;86737;-82
2024/01/02 03:24:51;;;;;;;7.30;3.20;;;;;;;2.82;96.66;95969.88;109168;1269;24286;-81
2024/01/02 03:27:22;;;;;;;5.60;2.60;;;;;;;2.81;96.61;95970.59;109243;1266;22534;-81
2024/01/02 03:29:54;;;;;;;7.20;3.10;;;;;;;2.81;96.68;95968.89;109198;1266;25443;-82
2024/01/02 03:32:26;;;;;;;5.30;2.00;;;;;;;2.81;96.82;95969.54;109203;1267;22528;-82
2024/01/02 03:35:02;;;;;;;4.60;1.70;;;;;;;2.86;96.96;95967.94;109219;1272;22776;-81
2024/01/02 03:37:37;;;;;;;5.70;1.90;;;;;;;2.89;96.91;95972.04;109235;1266;22523;-82
2024/01/02 03:40:14;;;;;;;5.60;3.00;;;;;;;2.92;96.85;95971.13;107833;1266;1846144;-81
2024/01/02 03:42:50;;;;;;;5.30;2.40;;;;;;;2.92;96.70;95960.60;109239;1271;24201;-82
2024/01/02 03:45:28;;;;;;;4.90;2.00;;;;;;;2.91;96.65;95959.44;109200;1269;22559;-82
2024/01/02 03:48:01;;;;;;;5.30;2.10;;;;;;;2.90;96.69;95960.68;109293;1272;23473;-82
2024/01/02 03:50:33;;;;;;;5.60;2.40;;;;;;;2.89;96.67;95962.98;109151;1272;91874;-82
2024/01/02 03:53:10;;;;;;;4.50;2.90;;;;;;;2.90;96.60;95966.23;109293;1266;24995;-82
2024/01/02 03:55:44;;;;;;;7.20;3.00;;;;;;;2.92;96.66;95970.39;109206;1272;22554;-83
2024/01/02 03:58:23;;;;;;;4.20;2.00;;;;;;;2.92;96.54;95967.25;109228;1251;22519;-82
2024/01/02 04:01:00;;;;;;;6.80;2.60;;;;;;;2.91;96.48;95973.63;109122;1269;102984;-82
2024/01/02 04:03:39;;;;;;;4.00;1.80;;;;;;;2.89;96.62;95975.86;109186;1272;23836;-82
2024/01/02 04:06:19;;;;;;;8.20;2.60;;;;;;;2.90;96.59;95975.61;109246;1265;22709;-82
2024/01/02 04:08:52;;;;;;;5.50;2.40;;;;;;;2.90;96.50;95975.05;109222;1272;22614;-82
2024/01/02 04:11:24;;;;;;;8.00;2.70;;;;;;;2.91;96.58;95975.25;109219;1262;44734;-81
2024/01/02 04:13:56;;;;;;;4.00;2.30;;;;;;;2.91;96.55;95974.47;109207;1272;22577;-82
2024/01/02 04:16:29;;;;;;;7.80;2.60;;;;;;;2.90;96.48;95974.41;109266;1269;25440;-82
2024/01/02 04:19:00;;;;;;;2.60;1.60;;;;;;;2.88;96.47;95973.08;109232;1271;22982;-82
2024/01/02 04:21:35;;;;;;;5.10;2.10;;;;;;;2.87;96.46;95974.32;109174;1266;42121;-82
2024/01/02 04:24:07;;;;;;;5.20;2.00;;;;;;;2.90;96.53;95974.72;109194;1272;24225;-82
2024/01/02 04:26:39;;;;;;;4.80;2.10;;;;;;;2.91;96.52;95970.12;109232;1271;22539;-83
2024/01/02 04:29:17;;;;;;;5.10;2.40;;;;;;;2.91;96.41;95972.84;109099;1265;22619;-83
2024/01/02 04:31:51;;;;;;;3.60;1.30;;;;;;;2.92;96.49;95974.11;109107;1272;133176;-83
2024/01/02 04:34:22;;;;;;;5.50;2.30;;;;;;;2.95;96.56;95967.70;109194;1272;22557;-83
2024/01/02 04:36:53;;;;;;;4.00;2.00;;;;;;;2.98;96.48;95975.92;109166;1272;22666;-83
2024/01/02 04:39:25;;;;;;;2.60;1.50;;;;;;;3.00;96.39;95967.66;109150;1249;22532;-82
2024/01/02 04:41:56;;;;;;;3.90;2.30;;;;;;;2.96;96.33;95959.87;107895;1272;1754333;-81
2024/01/02 04:44:28;;;;;;;2.00;1.20;;;;;;;2.99;96.29;95971.38;109198;1272;22549;-82
2024/01/02 04:47:00;;;;;;;3.30;1.40;;;;;;;3.01;96.37;95974.16;109202;1272;22660;-83
2024/01/02 04:49:35;;;;;;;4.20;1.70;;;;;;;3.00;96.22;95978.49;109150;1266;22514;-82
2024/01/02 04:52:09;;;;;;;3.60;2.10;;;;;;;3.00;96.19;95976.66;109120;1266;65343;-83
2024/01/02 04:54:40;;;;;;;4.20;1.70;;;;;;;3.01;96.12;95975.89;109204;1272;22522;-82
2024/01/02 04:57:11;;;;;;;2.80;1.70;;;;;;;3.01;96.06;95976.62;109189;1266;22528;-82
2024/01/02 04:59:49;;;;;;;3.50;1.90;;;;;;;2.99;95.81;95973.36;109222;1266;22525;-82
2024/01/02 05:02:24;;;;;;;2.90;1.50;;;;;;;2.95;95.80;95981.23;109127;1266;115474;-83
2024/01/02 05:05:10;;;;;;;4.40;2.10;;;;;;;2.92;95.77;95985.95;109241;1269;22622;-82
2024/01/02 05:07:41;;;;;;;6.10;2.40;;;;;;;2.90;95.81;95985.55;109201;1269;22529;-83
2024/01/02 05:10:12;;;;;;;4.40;1.80;;;;;;;2.89;95.85;95981.84;109199;1271;102509;-83
2024/01/02 05:12:46;;;;;;;4.30;2.10;;;;;;;2.91;95.93;95985.63;109204;1271;22616;-82
2024/01/02 05:15:24;;;;;;;3.30;1.40;;;;;;;2.93;95.93;95985.11;109178;1266;22538;-82
2024/01/02 05:17:55;;;;;;;6.20;1.20;;;;;;;2.93;95.92;95992.70;109239;1272;22483;-82
2024/01/02 05:20:27;;;;;;;1.40;1.10;;;;;;;2.93;95.86;95992.39;107762;1256;1844014;-82
2024/01/02 05:23:03;;;;;;;5.00;2.10;;;;;;;2.92;95.95;95989.04;109256;1271;22556;-82
2024/01/02 05:25:37;;;;;;;2.40;1.40;;;;;;;2.92;95.92;95982.85;109251;1272;22549;-84
2024/01/02 05:28:09;;;;;;;4.90;2.30;;;;;;;2.90;95.87;95984.52;109234;1271;23923;-82
2024/01/02 05:30:42;;;;;;;6.80;2.40;;;;;;;2.87;95.74;95979.45;109184;1266;46018;-82
2024/01/02 05:33:14;;;;;;;5.10;2.60;;;;;;;2.82;95.83;95986.52;109255;1272;22569;-82
2024/01/02 05:35:46;;;;;;;6.30;2.60;;;;;;;2.78;95.81;95983.00;109276;1269;25255;-82
2024/01/02 05:38:18;;;;;;;6.10;2.80;;;;;;;2.74;95.89;95985.21;109209;1268;22511;-82
2024/01/02 05:40:49;;;;;;;7.00;3.70;;;;;;;2.68;95.86;95982.75;109223;1269;33635;-82
2024/01/02 05:43:21;;;;;;;6.30;3.00;;;;;;;2.65;95.92;95982.84;109264;1271;22503;-82
2024/01/02 05:45:53;;;;;;;8.60;3.20;;;;;;;2.61;96.08;95983.91;109282;1272;22520;-81
2024/01/02 05:48:24;;;;;;;7.00;3.00;;;;;;;2.58;96.12;95988.54;109239;1272;26004;-82
2024/01/02 05:50:55;;;;;;;5.50;2.80;;;;;;;2.57;96.27;95986.95;109229;1268;68376;-82
2024/01/02 05:53:27;;;;;;;7.10;3.70;;;;;;;2.58;96.48;95987.90;109283;1266;22523;-82
2024/01/02 05:55:58;;;;;;;7.10;3.10;;;;;;;2.57;96.45;95985.16;109267;1266;22559;-82
2024/01/02 05:58:29;;;;;;;6.20;2.70;;;;;;;2.56;96.51;95987.56;109241;1266;22559;-82
2024/01/02 06:01:06;;;;;;;5.20;2.60;;;;;;;2.54;96.51;95988.63;109231;1269;61463;-83
2024/01/02 06:03:38;;;;;;;5.30;2.00;;;;;;;2.52;96.67;95989.70;109202;1249;22570;-83
2024/01/02 06:06:10;;;;;;;4.90;2.70;;;;;;;2.55;96.64;95987.87;109256;1272;22522;-83
2024/01/02 06:08:41;;;;;;;4.60;2.40;;;;;;;2.57;96.82;95988.46;109227;1249;22565;-83
2024/01/02 06:11:13;;;;;;;5.00;2.30;;;;;;;2.58;96.87;95994.65;109198;1269;45777;-83
2024/01/02 06:13:47;;;;;;;8.10;3.00;;;;;;;2.61;97.03;95992.28;109211;1272;22576;-83
2024/01/02 06:16:20;;;;;;;5.00;2.30;;;;;;;2.64;97.10;95984.92;109204;1271;22547;-81
2024/01/02 06:18:54;;;;;;;4.70;2.10;;;;;;;2.62;96.95;95981.61;109244;1272;23182;-81
2024/01/02 06:21:26;;;;;;;4.60;2.40;;;;;;;2.55;96.75;95974.88;109091;1272;73732;-82
2024/01/02 06:23:59;;;;;;;6.70;2.30;;;;;;;2.46;96.71;95971.00;109187;1266;22515;-82
2024/01/02 06:26:31;;;;;;;6.70;3.10;;;;;;;2.39;96.78;95976.61;109135;1272;22517;-82
2024/01/02 06:29:03;;;;;;;8.00;2.70;;;;;;;2.31;96.74;95972.22;109129;1267;22624;-83
2024/01/02 06:31:37;;;;;;;4.00;2.60;;;;;;;2.29;96.98;95977.01;109111;1269;44232;-82
2024/01/02 06:34:13;;;;;;;4.40;2.30;;;;;;;2.29;97.28;95983.44;109187;1272;22524;-83
2024/01/02 06:36:46;;;;;;;5.40;2.60;;;;;;;2.32;97.48;95982.38;109194;1272;22528;-81
2024/01/02 06:39:18;;;;;;;5.50;3.20;;;;;;;2.37;97.59;95978.50;109186;1271;22513;-80
2024/01/02 06:41:49;;;;;;;5.70;2.40;;;;;;;2.38;97.63;95980.73;109155;1250;43135;-80
2024/01/02 06:44:23;;;;;;;6.50;3.30;;;;;;;2.39;97.51;95982.40;109190;1272;23214;-81
2024/01/02 06:46:54;;;;;;;8.70;3.30;;;;;;;2.38;97.55;95979.00;109172;1269;23865;-83
2024/01/02 06:49:25;;;;;;;8.20;3.30;;;;;;;2.38;97.53;95979.41;109179;1253;22573;-82
2024/01/02 06:51:56;;;;;;;6.90;3.20;;;;;;;2.38;97.75;95975.22;109230;1269;39844;-81
2024/01/02 06:54:27;;;;;;;6.40;2.80;;;;;;;2.40;97.68;95975.46;109336;1269;22521;-81
2024/01/02 06:56:59;;;;;;;6.00;2.50;;;;;;;2.42;97.67;95976.59;109230;1272;23572;-82
2024/01/02 06:59:31;;;;;;;7.40;2.80;;;;;;;2.39;97.51;95975.45;109191;1266;22613;-82
2024/01/02 07:02:07;;;;;;;6.10;2.40;;;;;;;2.35;97.48;95976.91;109141;1266;52577;-82
2024/01/02 07:04:40;;;;;;;6.90;3.00;;;;;;;2.33;97.41;95979.15;109187;1272;23964;-82
2024/01/02 07:07:12;;;;;;;5.60;2.60;;;;;;;2.33;97.23;95984.48;109143;1266;24231;-82
2024/01/02 07:09:44;;;;;;;4.80;2.50;;;;;;;2.33;97.36;95977.27;109206;1266;23191;-82
2024/01/02 07:12:18;;;;;;;5.10;2.30;;;;;;;2.36;97.38;95981.42;109113;1269;34837;-82
2024/01/02 07:14:49;;;;;;;6.10;2.70;;;;;;;2.38;97.37;95976.02;109196;1267;23230;-82
2024/01/02 07:17:26;;;;;;;4.80;2.40;;;;;;;2.44;97.23;95981.23;109210;1272;22663;-82
2024/01/02 07:20:03;;;;;;;6.50;2.40;;;;;;;2.69;97.43;95979.55;109154;1268;22513;-82
2024/01/02 07:22:40;;;;;;;8.50;2.90;;;;;;;3.06;97.22;95979.14;109217;1265;22551;-82
2024/01/02 07:25:12;;;;;;;4.80;2.40;;;;;;;3.44;96.78;95974.27;109172;1269;24414;-82
2024/01/02 07:27:44;;;;;;;2.90;1.40;;;;;;;3.68;96.09;95978.37;109154;1269;22513;-82
2024/01/02 07:30:20;;;;;;;4.20;1.80;;;;;;;3.81;95.53;95979.10;107807;1269;1787036;-82
2024/01/02 07:32:51;;;;;;;4.40;1.60;;;;;;;3.97;95.00;95972.66;109189;1269;22520;-82
2024/01/02 07:35:25;;;;;;;5.80;2.50;;;;;;;3.98;93.88;95969.21;109143;1269;22694;-82
2024/01/02 07:37:59;;;;;;;4.40;1.40;;;;;;;3.99;93.20;95971.05;109235;1267;22513;-82
2024/01/02 07:40:42;;;;;;;8.20;2.00;;;;;;;4.00;92.87;95969.23;109095;1272;36065;-82
2024/01/02 07:43:23;;;;;;;3.70;1.20;;;;;;;4.05;92.67;95963.27;109098;1269;24151;-82
2024/01/02 07:45:55;;;;;;;5.60;2.40;;;;;;;4.05;91.99;95966.36;109165;1271;22639;-82
2024/01/02 07:48:26;;;;;;;7.20;1.80;;;;;;;4.01;91.32;95967.70;109139;1263;25297;-82
2024/01/02 07:50:57;;;;;;;5.00;1.40;;;;;;;3.92;90.68;95962.35;109162;1269;43511;-82
2024/01/02 07:53:29;;;;;;;3.70;1.50;;;;;;;3.82;89.98;95957.20;109181;1266;22471;-81
2024/01/02 07:56:05;;;;;;;4.00;1.30;;;;;;;3.74;89.55;95961.02;109214;1266;22631;-82
2024/01/02 07:58:36;;;;;;;3.30;1.60;;;;;;;3.66;88.71;95957.11;109207;1271;22521;-81
2024/01/02 08:01:08;;;;;;;6.30;2.20;;;;;;;3.59;88.63;95962.09;109116;1269;64272;-82
2024/01/02 08:03:40;;;;;;;7.00;2.10;;;;;;;3.64;88.69;95960.50;109203;1269;22688;-81
2024/01/02 08:06:14;;;;;;;5.20;2.20;;;;;;;3.70;88.26;95959.25;109240;1266;22475;-81
2024/01/02 08:08:47;;;;;;;5.70;1.70;;;;;;;3.82;88.37;95964.48;109183;1272;23768;-81
2024/01/02 08:11:27;;;;;;;4.20;1.70;;;;;;;3.84;87.89;95956.48;109186;1272;40172;-82
2024/01/02 08:14:02;;;;;;;6.80;3.10;;;;;;;3.83;87.40;95955.42;109176;1269;24190;-82
2024/01/02 08:16:36;;;;;;;8.10;2.40;;;;;;;3.90;87.95;95956.93;109204;1266;23958;-81
2024/01/02 08:19:20;;;;;;;;;;;;;;;;;;;;;
2024/01/02 08:21:51;;;;;;;4.50;2.30;;;;;;;4.09;88.40;95956.75;107647;1266;2056959;-81
2024/01/02 08:24:22;;;;;;;4.40;2.10;;;;;;;4.12;87.93;95957.77;109190;1272;22507;-81
2024/01/02 08:26:55;;;;;;;6.60;2.20;;;;;;;4.04;86.93;95957.23;109201;1265;22541;-80
2024/01/02 08:29:28;;;;;;;4.00;2.10;;;;;;;4.04;86.81;95949.68;109110;1272;23161;-81
2024/01/02 08:32:02;;;;;;;2.80;1.40;;;;;;;4.02;85.66;95949.83;109158;1269;61590;-81
2024/01/02 08:34:55;;;;;;;6.00;1.90;;;;;;;4.01;85.46;95942.90;109199;1269;22518;-78
2024/01/02 08:38:16;;;;;;;3.60;1.70;;;;;;;4.05;85.68;95943.55;109079;1265;23867;-82
2024/01/02 08:41:34;;;;;;;3.40;1.90;;;;;;;4.21;86.18;95945.38;104621;1272;5514874;-82
2024/01/02 08:44:38;;;;;;;;;;;;;;;;;;;;;
2024/01/02 08:47:38;;;;;;;;;;;;;;;;;;;;;
2024/01/02 08:50:11;;;;;;;6.60;2.20;;;;;;;4.22;84.81;95938.37;108656;1271;22603;-81
2024/01/02 08:56:14;;;;;;;7.20;2.10;;;;;;;4.22;83.96;95937.30;108500;1276;22562;-81
2024/01/02 08:58:50;;;;;;;2.90;1.70;;;;;;;4.22;83.91;95933.27;108768;1276;22510;-81
2024/01/02 09:01:39;;;;;;;;;;;;;;;;;;;;;
2024/01/02 09:04:18;;;;;;;5.50;2.30;;;;;;;4.29;84.18;95926.38;109114;1270;22526;-80
2024/01/02 09:06:55;;;;;;;4.40;2.00;;;;;;;4.31;84.05;95929.70;109134;1269;24195;-81
2024/01/02 09:09:37;;;;;;;4.60;1.60;;;;;;;4.31;83.87;95931.84;109171;1267;22529;-80
2024/01/02 09:12:22;;;;;;;4.90;1.90;;;;;;;4.38;84.48;95928.89;109098;1266;39153;-80
2024/01/02 09:15:13;;;;;;;4.40;1.40;;;;;;;4.41;83.66;95927.91;109254;1272;22531;-81
2024/01/02 09:17:44;;;;;;;4.60;1.70;;;;;;;4.35;82.76;95923.63;109186;1269;22567;-79
2024/01/02 09:20:54;;;;;;;6.40;2.30;;;;;;;4.32;82.88;95928.28;109182;1272;22735;-82
2024/01/02 09:23:40;;;;;;;7.60;2.50;;;;;;;4.32;82.92;95929.13;109140;1266;22506;-82
2024/01/02 09:26:26;;;;;;;3.50;2.10;;;;;;;4.43;83.16;95929.13;109250;1266;23686;-82
2024/01/02 09:28:58;;;;;;;5.80;2.50;;;;;;;4.44;82.84;95929.34;109116;1269;22465;-81
2024/01/02 09:34:49;;;;;;;11.50;2.20;;;;;;;4.41;82.05;95924.83;108768;1272;23872;-81
2024/01/02 09:37:30;;;;;;;4.80;1.20;;;;;;;4.38;81.85;95913.00;109110;1269;22513;-81
2024/01/02 09:40:39;;;;;;;5.50;2.20;;;;;;;4.38;81.75;95918.15;109203;1272;25415;-83
2024/01/02 09:43:33;;;;;;;6.20;2.00;;;;;;;4.37;81.80;95910.17;107581;1265;2104687;-82
2024/01/02 09:46:17;;;;;;;9.30;2.20;;;;;;;4.45;82.05;95911.81;109130;1266;22520;-83
2024/01/02 09:49:11;;;;;;;6.70;1.90;;;;;;;4.45;82.16;95913.13;109156;1272;22929;-83
2024/01/02 09:52:04;;;;;;;4.70;1.60;;;;;;;4.52;81.84;95910.27;109191;1269;66098;-83
2024/01/02 09:54:51;;;;;;;4.30;1.60;;;;;;;4.54;81.53;95901.89;109196;1269;22740;-82
2024/01/02 10:00:47;;;;;;;5.40;1.60;;;;;;;4.60;81.58;95888.30;109232;1265;22458;-83
2024/01/02 10:04:05;;;;;;;5.20;2.50;;;;;;;4.64;81.73;95882.73;109149;1265;78443;-82
2024/01/02 10:07:00;;;;;;;5.50;2.00;;;;;;;4.65;81.64;95886.91;109151;1270;22573;-84
2024/01/02 10:09:55;;;;;;;6.80;2.30;;;;;;;4.70;82.01;95888.34;109175;1272;22740;-83
2024/01/02 10:13:02;;;;;;;7.30;2.60;;;;;;;4.78;82.07;95888.67;105062;1267;5417149;-84
2024/01/02 10:19:22;;;;;;;7.50;2.30;;;;;;;4.79;81.83;95876.60;109130;1272;22513;-84
2024/01/02 10:22:20;;;;;;;5.00;2.20;;;;;;;4.81;81.39;95870.77;108664;1275;81512;-84
2024/01/02 10:25:52;;;;;;;4.10;1.50;;;;;;;4.81;81.53;95864.16;108758;1276;22569;-85
2024/01/02 10:28:43;;;;;;;5.60;1.50;;;;;;;4.77;80.76;95857.11;108295;1276;22700;-84
2024/01/02 10:32:13;;;;;;;5.60;1.60;;;;;;;4.74;80.69;95856.30;107291;1266;1982172;-84
2024/01/02 10:35:14;;;;;;;6.20;2.40;;;;;;;4.76;80.03;95847.75;108743;1275;22546;-85
2024/01/02 10:38:15;;;;;;;7.50;2.00;;;;;;;4.75;79.88;95840.35;108911;1276;22726;-84
2024/01/02 10:41:22;;;;;;;6.70;1.90;;;;;;;4.86;80.57;95842.38;108852;1276;25276;-83
2024/01/02 10:44:22;;;;;;;5.20;2.10;;;;;;;5.01;80.96;95833.98;108694;1277;149021;-84
2024/01/02 10:47:22;;;;;;;6.20;1.70;;;;;;;4.97;79.51;95831.77;108798;1274;22614;-83
2024/01/02 10:50:07;;;;;;;8.80;1.50;;;;;;;4.91;79.03;95824.61;108611;1277;25481;-83
2024/01/02 10:52:59;;;;;;;6.10;1.80;;;;;;;4.86;79.37;95822.36;108675;1272;54422;-84
2024/01/02 10:55:59;;;;;;;;;;;;;;;;;;;;;
2024/01/02 10:59:08;;;;;;;3.90;1.60;;;;;;;4.87;79.31;95810.80;108899;1275;22500;-83
2024/01/02 11:01:50;;;;;;;4.40;1.70;;;;;;;4.88;79.41;95810.02;108867;1276;59599;-83
2024/01/02 11:04:39;;;;;;;5.70;1.40;;;;;;;4.87;78.90;95802.40;109059;1276;23115;-84
2024/01/02 11:07:22;;;;;;;7.20;1.50;;;;;;;4.81;79.15;95800.56;109059;1276;22564;-84
2024/01/02 11:10:16;;;;;;;4.40;1.60;;;;;;;4.81;78.93;95790.23;109095;1269;22647;-84
2024/01/02 11:12:57;;;;;;;3.90;1.50;;;;;;;4.78;78.05;95786.27;108921;1273;38100;-81
2024/01/02 11:15:36;;;;;;;4.10;1.70;;;;;;;4.78;77.41;95771.45;108987;1276;22612;-81
2024/01/02 11:18:17;;;;;;;6.90;2.00;;;;;;;4.81;76.73;95765.59;109092;1276;23799;-81
2024/01/02 11:21:03;;;;;;;4.60;1.30;;;;;;;4.76;76.99;95762.41;109015;1273;22579;-81
2024/01/02 11:23:41;;;;;;;5.40;1.90;;;;;;;4.72;76.45;95751.19;108887;1273;68670;-81
2024/01/02 11:26:21;;;;;;;6.70;1.60;;;;;;;4.68;76.25;95745.46;108926;1273;23267;-80
2024/01/02 11:28:53;;;;;;;5.10;1.50;;;;;;;4.71;76.88;95745.73;108849;1268;22527;-81
2024/01/02 11:31:25;;;;;;;3.20;1.00;;;;;;;4.77;77.47;95746.56;108889;1275;22530;-81
2024/01/02 11:34:18;;;;;;;5.80;1.60;;;;;;;4.82;77.66;95738.43;109023;1275;25435;-81
2024/01/02 11:37:14;;;;;;;4.40;1.60;;;;;;;4.95;77.70;95735.28;109051;1276;22694;-82
2024/01/02 11:40:03;;;;;;;6.70;1.90;;;;;;;5.00;77.59;95735.17;108961;1276;22576;-81
2024/01/02 11:42:52;;;;;;;4.20;1.30;;;;;;;4.97;76.75;95732.61;107241;1273;2333987;-82
2024/01/02 11:45:38;;;;;;;7.50;1.60;;;;;;;4.90;76.37;95735.06;109036;1260;22571;-81
2024/01/02 11:48:51;;;;;;;2.40;1.60;;;;;;;4.83;75.80;95725.94;109026;1254;24091;-81
2024/01/02 11:51:36;;;;;;;5.80;2.20;;;;;;;4.79;76.23;95722.79;110364;1276;22282;-81
2024/01/02 11:55:03;;;;;;;4.90;2.10;;;;;;;4.77;76.79;95721.19;110342;1274;22236;-81
2024/01/02 11:57:47;;;;;;;6.70;1.40;;;;;;;4.78;77.02;95709.34;109926;1277;23042;-81
2024/01/02 12:00:50;;;;;;;10.00;2.20;;;;;;;4.79;77.18;95701.00;109952;1276;22932;-83
2024/01/02 12:04:13;;;;;;;5.10;2.00;;;;;;;4.81;77.36;95696.42;107856;1282;2454587;-82
2024/01/02 12:06:59;;;;;;;5.10;1.50;;;;;;;4.79;76.98;95695.33;109953;1281;22333;-81
2024/01/02 12:09:39;;;;;;;8.80;1.90;;;;;;;4.78;76.89;95689.27;109938;1273;22360;-81
2024/01/02 12:12:31;;;;;;;3.80;1.10;;;;;;;4.79;77.16;95692.23;109798;1281;67014;-81
2024/01/02 12:15:11;;;;;;;6.70;2.00;;;;;;;4.80;77.17;95686.61;109879;1275;22953;-81
2024/01/02 12:17:58;;;;;;;5.00;1.70;;;;;;;4.79;76.98;95681.10;109866;1281;22954;-81
2024/01/02 12:20:37;;;;;;;11.80;2.50;;;;;;;4.77;76.84;95673.78;109909;1277;22192;-81
2024/01/02 12:23:14;;;;;;;3.50;1.20;;;;;;;4.75;76.38;95666.11;110202;1276;26392;-80
2024/01/02 12:25:54;;;;;;;6.30;1.60;;;;;;;4.76;75.71;95654.55;110336;1276;22689;-81
2024/01/02 12:28:29;;;;;;;7.60;1.70;;;;;;;4.79;75.40;95656.05;110341;1273;23284;-81
2024/01/02 12:31:38;;;;;;;6.30;1.50;;;;;;;4.79;75.79;95658.67;110346;1276;22215;-81
2024/01/02 12:34:23;;;;;;;3.30;1.40;;;;;;;4.75;75.61;95649.59;110339;1276;22243;-81
2024/01/02 12:37:09;;;;;;;11.50;2.30;;;;;;;4.79;75.38;95656.30;110347;1271;22302;-81
2024/01/02 12:43:05;;;;;;;5.50;2.00;;;;;;;4.78;75.30;95648.79;106005;1270;5491155;-81
2024/01/02 12:45:45;;;;;;;3.70;1.80;;;;;;;4.77;75.29;95643.48;110328;1272;22446;-81
2024/01/02 12:48:25;;;;;;;6.90;2.00;;;;;;;4.78;75.28;95645.52;110338;1276;22308;-81
2024/01/02 12:51:03;;;;;;;3.60;1.80;;;;;;;4.78;75.06;95634.82;110328;1265;22222;-81